sensor_id;sensor_type;location;lat;lon;timestamp;P1;durP1;ratioP1;P2;durP2;ratioP2
47812;SDS011;34221;45.296;9.516;2023-07-20T00:00:05;1.23;;;1.00;;
47812;SDS011;34221;45.296;9.516;2023-07-20T00:00:27;1.27;;;0.93;;
47812;SDS011;34221;45.296;9.516;2023-07-20T00:00:42;1.10;;;0.77;;
47812;SDS011;34221;45.296;9.516;2023-07-20T00:00:57;1.23;;;0.80;;
47812;SDS011;34221;45.296;9.516;2023-07-20T00:01:12;1.33;;;0.80;;
47812;SDS011;34221;45.296;9.516;2023-07-20T00:01:27;1.05;;;0.60;;
47812;SDS011;34221;45.296;9.516;2023-07-20T00:01:42;0.95;;;0.70;;
47812;SDS011;34221;45.296;9.516;2023-07-20T00:01:58;1.20;;;0.85;;
47812;SDS011;34221;45.296;9.516;2023-07-20T00:02:13;1.33;;;0.90;;
47812;SDS011;34221;45.296;9.516;2023-07-20T00:02:28;1.02;;;0.90;;
47812;SDS011;34221;45.296;9.516;2023-07-20T00:02:43;1.05;;;0.80;;
47812;SDS011;34221;45.296;9.516;2023-07-20T00:03:11;1.23;;;0.85;;
47812;SDS011;34221;45.296;9.516;2023-07-20T00:03:33;1.35;;;0.80;;
47812;SDS011;34221;45.296;9.516;2023-07-20T00:03:48;1.50;;;0.80;;
47812;SDS011;34221;45.296;9.516;2023-07-20T00:04:08;1.05;;;0.90;;
47812;SDS011;34221;45.296;9.516;2023-07-20T00:04:27;1.10;;;1.00;;
47812;SDS011;34221;45.296;9.516;2023-07-20T00:04:42;1.13;;;0.95;;
47812;SDS011;34221;45.296;9.516;2023-07-20T00:04:56;0.90;;;0.80;;
47812;SDS011;34221;45.296;9.516;2023-07-20T00:05:11;1.02;;;0.88;;
47812;SDS011;34221;45.296;9.516;2023-07-20T00:05:27;1.50;;;0.93;;
47812;SDS011;34221;45.296;9.516;2023-07-20T00:05:42;1.60;;;0.90;;
47812;SDS011;34221;45.296;9.516;2023-07-20T00:05:58;1.38;;;0.90;;
47812;SDS011;34221;45.296;9.516;2023-07-20T00:06:13;1.42;;;1.02;;
47812;SDS011;34221;45.296;9.516;2023-07-20T00:06:28;1.98;;;1.20;;
47812;SDS011;34221;45.296;9.516;2023-07-20T00:06:43;2.03;;;1.30;;
47812;SDS011;34221;45.296;9.516;2023-07-20T00:06:58;1.85;;;1.15;;
47812;SDS011;34221;45.296;9.516;2023-07-20T00:07:15;1.60;;;0.95;;
47812;SDS011;34221;45.296;9.516;2023-07-20T00:07:30;1.52;;;1.00;;
47812;SDS011;34221;45.296;9.516;2023-07-20T00:07:45;1.80;;;1.10;;
47812;SDS011;34221;45.296;9.516;2023-07-20T00:07:59;1.60;;;1.08;;
47812;SDS011;34221;45.296;9.516;2023-07-20T00:08:15;1.20;;;0.90;;
47812;SDS011;34221;45.296;9.516;2023-07-20T00:08:31;0.98;;;0.80;;
47812;SDS011;34221;45.296;9.516;2023-07-20T00:08:46;1.17;;;0.90;;
47812;SDS011;34221;45.296;9.516;2023-07-20T00:09:01;1.20;;;0.88;;
47812;SDS011;34221;45.296;9.516;2023-07-20T00:09:16;0.90;;;0.70;;
47812;SDS011;34221;45.296;9.516;2023-07-20T00:09:31;0.67;;;0.67;;
47812;SDS011;34221;45.296;9.516;2023-07-20T00:09:46;0.90;;;0.70;;
47812;SDS011;34221;45.296;9.516;2023-07-20T00:10:02;1.30;;;0.80;;
47812;SDS011;34221;45.296;9.516;2023-07-20T00:10:17;1.40;;;0.85;;
47812;SDS011;34221;45.296;9.516;2023-07-20T00:10:32;1.23;;;0.70;;
47812;SDS011;34221;45.296;9.516;2023-07-20T00:10:47;0.75;;;0.45;;
47812;SDS011;34221;45.296;9.516;2023-07-20T00:11:02;0.50;;;0.50;;
47812;SDS011;34221;45.296;9.516;2023-07-20T00:11:17;0.97;;;0.73;;
47812;SDS011;34221;45.296;9.516;2023-07-20T00:11:35;1.52;;;0.65;;
47812;SDS011;34221;45.296;9.516;2023-07-20T00:11:54;1.80;;;0.60;;
47812;SDS011;34221;45.296;9.516;2023-07-20T00:12:09;0.65;;;0.57;;
47812;SDS011;34221;45.296;9.516;2023-07-20T00:12:24;0.77;;;0.60;;
47812;SDS011;34221;45.296;9.516;2023-07-20T00:12:39;1.10;;;0.70;;
47812;SDS011;34221;45.296;9.516;2023-07-20T00:12:54;0.80;;;0.60;;
47812;SDS011;34221;45.296;9.516;2023-07-20T00:13:09;0.60;;;0.60;;
47812;SDS011;34221;45.296;9.516;2023-07-20T00:13:25;1.05;;;0.77;;
47812;SDS011;34221;45.296;9.516;2023-07-20T00:13:40;0.90;;;0.70;;
47812;SDS011;34221;45.296;9.516;2023-07-20T00:13:55;0.82;;;0.70;;
47812;SDS011;34221;45.296;9.516;2023-07-20T00:14:10;1.13;;;0.88;;
47812;SDS011;34221;45.296;9.516;2023-07-20T00:14:25;1.08;;;0.85;;
47812;SDS011;34221;45.296;9.516;2023-07-20T00:14:40;0.88;;;0.77;;
47812;SDS011;34221;45.296;9.516;2023-07-20T00:14:55;1.05;;;0.77;;
47812;SDS011;34221;45.296;9.516;2023-07-20T00:15:10;2.30;;;0.90;;
47812;SDS011;34221;45.296;9.516;2023-07-20T00:15:25;2.10;;;0.90;;
47812;SDS011;34221;45.296;9.516;2023-07-20T00:15:40;0.85;;;0.73;;
47812;SDS011;34221;45.296;9.516;2023-07-20T00:15:55;1.05;;;0.77;;
47812;SDS011;34221;45.296;9.516;2023-07-20T00:16:10;1.40;;;0.90;;
47812;SDS011;34221;45.296;9.516;2023-07-20T00:16:25;1.20;;;0.80;;
47812;SDS011;34221;45.296;9.516;2023-07-20T00:16:40;1.05;;;0.85;;
47812;SDS011;34221;45.296;9.516;2023-07-20T00:16:55;1.45;;;1.00;;
47812;SDS011;34221;45.296;9.516;2023-07-20T00:17:10;1.63;;;0.90;;
47812;SDS011;34221;45.296;9.516;2023-07-20T00:17:25;1.42;;;1.00;;
47812;SDS011;34221;45.296;9.516;2023-07-20T00:17:40;1.83;;;1.02;;
47812;SDS011;34221;45.296;9.516;2023-07-20T00:17:56;1.92;;;1.00;;
47812;SDS011;34221;45.296;9.516;2023-07-20T00:18:11;1.95;;;1.10;;
47812;SDS011;34221;45.296;9.516;2023-07-20T00:18:26;1.75;;;1.15;;
47812;SDS011;34221;45.296;9.516;2023-07-20T00:18:41;1.70;;;1.20;;
47812;SDS011;34221;45.296;9.516;2023-07-20T00:18:56;1.92;;;1.27;;
47812;SDS011;34221;45.296;9.516;2023-07-20T00:19:12;2.00;;;1.15;;
47812;SDS011;34221;45.296;9.516;2023-07-20T00:19:27;1.67;;;1.10;;
47812;SDS011;34221;45.296;9.516;2023-07-20T00:19:42;1.75;;;1.15;;
47812;SDS011;34221;45.296;9.516;2023-07-20T00:19:57;2.03;;;1.30;;
47812;SDS011;34221;45.296;9.516;2023-07-20T00:20:12;1.65;;;1.27;;
47812;SDS011;34221;45.296;9.516;2023-07-20T00:20:27;1.73;;;1.20;;
47812;SDS011;34221;45.296;9.516;2023-07-20T00:20:42;1.98;;;1.30;;
47812;SDS011;34221;45.296;9.516;2023-07-20T00:20:57;2.33;;;1.35;;
47812;SDS011;34221;45.296;9.516;2023-07-20T00:21:14;2.05;;;1.23;;
47812;SDS011;34221;45.296;9.516;2023-07-20T00:21:30;2.05;;;1.13;;
47812;SDS011;34221;45.296;9.516;2023-07-20T00:21:44;1.60;;;1.00;;
47812;SDS011;34221;45.296;9.516;2023-07-20T00:21:59;1.73;;;0.93;;
47812;SDS011;34221;45.296;9.516;2023-07-20T00:22:14;1.92;;;0.95;;
47812;SDS011;34221;45.296;9.516;2023-07-20T00:22:29;1.65;;;1.00;;
47812;SDS011;34221;45.296;9.516;2023-07-20T00:22:44;2.20;;;1.10;;
47812;SDS011;34221;45.296;9.516;2023-07-20T00:22:59;2.08;;;1.20;;
47812;SDS011;34221;45.296;9.516;2023-07-20T00:23:14;1.30;;;0.98;;
47812;SDS011;34221;45.296;9.516;2023-07-20T00:23:29;0.98;;;0.73;;
47812;SDS011;34221;45.296;9.516;2023-07-20T00:23:44;1.50;;;0.90;;
47812;SDS011;34221;45.296;9.516;2023-07-20T00:23:59;1.55;;;0.95;;
47812;SDS011;34221;45.296;9.516;2023-07-20T00:24:14;0.90;;;0.80;;
47812;SDS011;34221;45.296;9.516;2023-07-20T00:24:29;0.95;;;0.80;;
47812;SDS011;34221;45.296;9.516;2023-07-20T00:24:44;0.70;;;0.60;;
47812;SDS011;34221;45.296;9.516;2023-07-20T00:24:59;0.65;;;0.55;;
47812;SDS011;34221;45.296;9.516;2023-07-20T00:25:14;0.63;;;0.55;;
47812;SDS011;34221;45.296;9.516;2023-07-20T00:25:30;0.82;;;0.50;;
47812;SDS011;34221;45.296;9.516;2023-07-20T00:25:45;1.02;;;0.65;;
47812;SDS011;34221;45.296;9.516;2023-07-20T00:26:01;0.88;;;0.80;;
47812;SDS011;34221;45.296;9.516;2023-07-20T00:26:16;1.17;;;0.82;;
47812;SDS011;34221;45.296;9.516;2023-07-20T00:26:31;1.30;;;0.80;;
47812;SDS011;34221;45.296;9.516;2023-07-20T00:26:46;0.82;;;0.60;;
47812;SDS011;34221;45.296;9.516;2023-07-20T00:27:02;0.73;;;0.70;;
47812;SDS011;34221;45.296;9.516;2023-07-20T00:27:18;0.80;;;0.70;;
47812;SDS011;34221;45.296;9.516;2023-07-20T00:27:33;0.65;;;0.63;;
47812;SDS011;34221;45.296;9.516;2023-07-20T00:27:48;0.77;;;0.70;;
47812;SDS011;34221;45.296;9.516;2023-07-20T00:28:03;0.70;;;0.60;;
47812;SDS011;34221;45.296;9.516;2023-07-20T00:28:19;0.75;;;0.63;;
47812;SDS011;34221;45.296;9.516;2023-07-20T00:28:34;1.00;;;0.75;;
47812;SDS011;34221;45.296;9.516;2023-07-20T00:28:49;1.00;;;0.80;;
47812;SDS011;34221;45.296;9.516;2023-07-20T00:29:07;0.80;;;0.63;;
47812;SDS011;34221;45.296;9.516;2023-07-20T00:29:22;0.60;;;0.60;;
47812;SDS011;34221;45.296;9.516;2023-07-20T00:30:03;0.85;;;0.68;;
47812;SDS011;34221;45.296;9.516;2023-07-20T00:30:20;1.00;;;0.70;;
47812;SDS011;34221;45.296;9.516;2023-07-20T00:30:35;1.10;;;0.77;;
47812;SDS011;34221;45.296;9.516;2023-07-20T00:30:52;1.42;;;0.85;;
47812;SDS011;34221;45.296;9.516;2023-07-20T00:31:07;1.73;;;0.98;;
47812;SDS011;34221;45.296;9.516;2023-07-20T00:31:22;1.40;;;0.97;;
47812;SDS011;34221;45.296;9.516;2023-07-20T00:31:37;1.10;;;0.80;;
47812;SDS011;34221;45.296;9.516;2023-07-20T00:31:52;0.98;;;0.70;;
47812;SDS011;34221;45.296;9.516;2023-07-20T00:32:07;1.27;;;0.90;;
47812;SDS011;34221;45.296;9.516;2023-07-20T00:32:22;1.48;;;0.90;;
47812;SDS011;34221;45.296;9.516;2023-07-20T00:32:37;1.00;;;0.70;;
47812;SDS011;34221;45.296;9.516;2023-07-20T00:32:52;0.82;;;0.70;;
47812;SDS011;34221;45.296;9.516;2023-07-20T00:33:09;0.85;;;0.75;;
47812;SDS011;34221;45.296;9.516;2023-07-20T00:33:45;1.50;;;0.90;;
47812;SDS011;34221;45.296;9.516;2023-07-20T00:34:00;1.33;;;0.85;;
47812;SDS011;34221;45.296;9.516;2023-07-20T00:34:15;1.20;;;0.85;;
47812;SDS011;34221;45.296;9.516;2023-07-20T00:34:30;1.33;;;0.93;;
47812;SDS011;34221;45.296;9.516;2023-07-20T00:34:45;1.55;;;1.00;;
47812;SDS011;34221;45.296;9.516;2023-07-20T00:35:00;1.85;;;1.08;;
47812;SDS011;34221;45.296;9.516;2023-07-20T00:35:15;1.35;;;0.98;;
47812;SDS011;34221;45.296;9.516;2023-07-20T00:35:30;1.00;;;0.80;;
47812;SDS011;34221;45.296;9.516;2023-07-20T00:35:45;1.20;;;0.77;;
47812;SDS011;34221;45.296;9.516;2023-07-20T00:36:00;1.00;;;0.70;;
47812;SDS011;34221;45.296;9.516;2023-07-20T00:36:15;0.75;;;0.65;;
47812;SDS011;34221;45.296;9.516;2023-07-20T00:36:30;0.98;;;0.77;;
47812;SDS011;34221;45.296;9.516;2023-07-20T00:36:46;1.10;;;0.90;;
47812;SDS011;34221;45.296;9.516;2023-07-20T00:37:01;1.17;;;0.90;;
47812;SDS011;34221;45.296;9.516;2023-07-20T00:37:16;1.15;;;0.73;;
47812;SDS011;34221;45.296;9.516;2023-07-20T00:37:31;1.15;;;0.70;;
47812;SDS011;34221;45.296;9.516;2023-07-20T00:37:47;1.05;;;0.80;;
47812;SDS011;34221;45.296;9.516;2023-07-20T00:38:02;1.27;;;0.90;;
47812;SDS011;34221;45.296;9.516;2023-07-20T00:38:17;2.10;;;1.10;;
47812;SDS011;34221;45.296;9.516;2023-07-20T00:38:32;2.10;;;1.27;;
47812;SDS011;34221;45.296;9.516;2023-07-20T00:38:47;1.50;;;1.17;;
47812;SDS011;34221;45.296;9.516;2023-07-20T00:39:04;1.10;;;1.00;;
47812;SDS011;34221;45.296;9.516;2023-07-20T00:39:19;0.77;;;0.77;;
47812;SDS011;34221;45.296;9.516;2023-07-20T00:39:34;0.90;;;0.73;;
47812;SDS011;34221;45.296;9.516;2023-07-20T00:39:49;1.38;;;0.93;;
47812;SDS011;34221;45.296;9.516;2023-07-20T00:40:06;1.15;;;0.93;;
47812;SDS011;34221;45.296;9.516;2023-07-20T00:40:22;1.10;;;0.90;;
47812;SDS011;34221;45.296;9.516;2023-07-20T00:40:38;1.15;;;1.00;;
47812;SDS011;34221;45.296;9.516;2023-07-20T00:40:53;1.42;;;0.98;;
47812;SDS011;34221;45.296;9.516;2023-07-20T00:41:08;1.48;;;0.90;;
47812;SDS011;34221;45.296;9.516;2023-07-20T00:41:23;1.25;;;0.90;;
47812;SDS011;34221;45.296;9.516;2023-07-20T00:41:38;1.45;;;1.00;;
47812;SDS011;34221;45.296;9.516;2023-07-20T00:41:53;1.40;;;0.95;;
47812;SDS011;34221;45.296;9.516;2023-07-20T00:42:08;1.20;;;0.90;;
47812;SDS011;34221;45.296;9.516;2023-07-20T00:42:23;1.77;;;1.27;;
47812;SDS011;34221;45.296;9.516;2023-07-20T00:42:39;2.10;;;1.45;;
47812;SDS011;34221;45.296;9.516;2023-07-20T00:42:55;1.95;;;1.30;;
47812;SDS011;34221;45.296;9.516;2023-07-20T00:43:12;2.78;;;1.52;;
47812;SDS011;34221;45.296;9.516;2023-07-20T00:43:27;2.40;;;1.38;;
47812;SDS011;34221;45.296;9.516;2023-07-20T00:43:43;1.80;;;1.20;;
47812;SDS011;34221;45.296;9.516;2023-07-20T00:43:59;1.83;;;1.23;;
47812;SDS011;34221;45.296;9.516;2023-07-20T00:44:15;1.90;;;1.27;;
47812;SDS011;34221;45.296;9.516;2023-07-20T00:44:30;1.75;;;1.20;;
47812;SDS011;34221;45.296;9.516;2023-07-20T00:44:45;1.58;;;1.10;;
47812;SDS011;34221;45.296;9.516;2023-07-20T00:45:00;1.40;;;1.10;;
47812;SDS011;34221;45.296;9.516;2023-07-20T00:45:17;2.17;;;1.35;;
47812;SDS011;34221;45.296;9.516;2023-07-20T00:45:33;2.78;;;1.30;;
47812;SDS011;34221;45.296;9.516;2023-07-20T00:45:50;1.80;;;1.00;;
47812;SDS011;34221;45.296;9.516;2023-07-20T00:46:07;1.40;;;0.98;;
47812;SDS011;34221;45.296;9.516;2023-07-20T00:46:22;2.15;;;1.08;;
47812;SDS011;34221;45.296;9.516;2023-07-20T00:46:39;2.05;;;1.13;;
47812;SDS011;34221;45.296;9.516;2023-07-20T00:46:55;1.80;;;1.20;;
47812;SDS011;34221;45.296;9.516;2023-07-20T00:47:11;2.05;;;1.20;;
47812;SDS011;34221;45.296;9.516;2023-07-20T00:47:27;1.70;;;1.17;;
47812;SDS011;34221;45.296;9.516;2023-07-20T00:47:42;1.42;;;1.10;;
47812;SDS011;34221;45.296;9.516;2023-07-20T00:47:57;2.20;;;1.23;;
47812;SDS011;34221;45.296;9.516;2023-07-20T00:48:12;2.60;;;1.38;;
47812;SDS011;34221;45.296;9.516;2023-07-20T00:48:29;2.63;;;1.33;;
47812;SDS011;34221;45.296;9.516;2023-07-20T00:48:45;2.70;;;1.40;;
47812;SDS011;34221;45.296;9.516;2023-07-20T00:49:00;2.15;;;1.33;;
47812;SDS011;34221;45.296;9.516;2023-07-20T00:49:16;1.55;;;1.20;;
47812;SDS011;34221;45.296;9.516;2023-07-20T00:49:35;1.73;;;1.23;;
47812;SDS011;34221;45.296;9.516;2023-07-20T00:49:52;1.70;;;1.20;;
47812;SDS011;34221;45.296;9.516;2023-07-20T00:50:08;2.35;;;1.40;;
47812;SDS011;34221;45.296;9.516;2023-07-20T00:50:24;2.10;;;1.30;;
47812;SDS011;34221;45.296;9.516;2023-07-20T00:50:40;1.92;;;1.23;;
47812;SDS011;34221;45.296;9.516;2023-07-20T00:50:57;1.90;;;1.20;;
47812;SDS011;34221;45.296;9.516;2023-07-20T00:51:13;1.63;;;1.10;;
47812;SDS011;34221;45.296;9.516;2023-07-20T00:51:29;2.20;;;1.30;;
47812;SDS011;34221;45.296;9.516;2023-07-20T00:51:44;1.92;;;1.20;;
47812;SDS011;34221;45.296;9.516;2023-07-20T00:52:00;1.73;;;1.15;;
47812;SDS011;34221;45.296;9.516;2023-07-20T00:52:17;1.60;;;1.20;;
47812;SDS011;34221;45.296;9.516;2023-07-20T00:52:35;1.25;;;1.00;;
47812;SDS011;34221;45.296;9.516;2023-07-20T00:52:57;1.30;;;1.00;;
47812;SDS011;34221;45.296;9.516;2023-07-20T00:53:12;1.08;;;0.80;;
47812;SDS011;34221;45.296;9.516;2023-07-20T00:53:28;1.40;;;1.00;;
47812;SDS011;34221;45.296;9.516;2023-07-20T00:53:43;3.95;;;1.35;;
47812;SDS011;34221;45.296;9.516;2023-07-20T00:53:58;5.07;;;1.67;;
47812;SDS011;34221;45.296;9.516;2023-07-20T00:54:13;2.78;;;1.58;;
47812;SDS011;34221;45.296;9.516;2023-07-20T00:54:29;1.55;;;1.25;;
47812;SDS011;34221;45.296;9.516;2023-07-20T00:54:44;1.52;;;1.17;;
47812;SDS011;34221;45.296;9.516;2023-07-20T00:54:59;1.60;;;1.20;;
47812;SDS011;34221;45.296;9.516;2023-07-20T00:55:18;1.55;;;1.10;;
47812;SDS011;34221;45.296;9.516;2023-07-20T00:55:34;1.45;;;0.95;;
47812;SDS011;34221;45.296;9.516;2023-07-20T00:55:49;1.40;;;1.02;;
47812;SDS011;34221;45.296;9.516;2023-07-20T00:56:04;1.70;;;1.10;;
47812;SDS011;34221;45.296;9.516;2023-07-20T00:56:19;1.87;;;1.20;;
47812;SDS011;34221;45.296;9.516;2023-07-20T00:56:34;1.33;;;1.00;;
47812;SDS011;34221;45.296;9.516;2023-07-20T00:56:50;1.63;;;1.10;;
47812;SDS011;34221;45.296;9.516;2023-07-20T00:57:07;2.58;;;1.27;;
47812;SDS011;34221;45.296;9.516;2023-07-20T00:57:22;1.92;;;1.10;;
47812;SDS011;34221;45.296;9.516;2023-07-20T00:57:39;1.80;;;1.10;;
47812;SDS011;34221;45.296;9.516;2023-07-20T00:57:54;1.88;;;1.10;;
47812;SDS011;34221;45.296;9.516;2023-07-20T00:58:09;1.45;;;0.90;;
47812;SDS011;34221;45.296;9.516;2023-07-20T00:58:25;1.30;;;0.90;;
47812;SDS011;34221;45.296;9.516;2023-07-20T00:58:40;1.50;;;0.95;;
47812;SDS011;34221;45.296;9.516;2023-07-20T00:58:55;1.88;;;1.10;;
47812;SDS011;34221;45.296;9.516;2023-07-20T00:59:11;2.08;;;1.20;;
47812;SDS011;34221;45.296;9.516;2023-07-20T00:59:26;1.70;;;1.00;;
47812;SDS011;34221;45.296;9.516;2023-07-20T00:59:41;1.40;;;0.95;;
47812;SDS011;34221;45.296;9.516;2023-07-20T00:59:56;1.20;;;0.90;;
47812;SDS011;34221;45.296;9.516;2023-07-20T01:00:12;1.27;;;0.98;;
47812;SDS011;34221;45.296;9.516;2023-07-20T01:00:27;1.45;;;1.15;;
47812;SDS011;34221;45.296;9.516;2023-07-20T01:00:42;1.70;;;1.20;;
47812;SDS011;34221;45.296;9.516;2023-07-20T01:00:57;1.50;;;1.10;;
47812;SDS011;34221;45.296;9.516;2023-07-20T01:01:12;1.33;;;0.98;;
47812;SDS011;34221;45.296;9.516;2023-07-20T01:01:28;1.73;;;1.08;;
47812;SDS011;34221;45.296;9.516;2023-07-20T01:01:43;1.60;;;1.10;;
47812;SDS011;34221;45.296;9.516;2023-07-20T01:01:59;1.40;;;0.90;;
47812;SDS011;34221;45.296;9.516;2023-07-20T01:02:14;1.45;;;0.90;;
47812;SDS011;34221;45.296;9.516;2023-07-20T01:02:29;1.23;;;0.90;;
47812;SDS011;34221;45.296;9.516;2023-07-20T01:02:44;1.08;;;0.93;;
47812;SDS011;34221;45.296;9.516;2023-07-20T01:03:01;1.40;;;1.10;;
47812;SDS011;34221;45.296;9.516;2023-07-20T01:03:15;1.90;;;1.03;;
47812;SDS011;34221;45.296;9.516;2023-07-20T01:03:30;1.77;;;0.87;;
47812;SDS011;34221;45.296;9.516;2023-07-20T01:03:45;1.48;;;0.95;;
47812;SDS011;34221;45.296;9.516;2023-07-20T01:04:19;2.30;;;1.33;;
47812;SDS011;34221;45.296;9.516;2023-07-20T01:04:35;2.30;;;1.30;;
47812;SDS011;34221;45.296;9.516;2023-07-20T01:04:51;2.22;;;1.25;;
47812;SDS011;34221;45.296;9.516;2023-07-20T01:05:06;2.10;;;1.30;;
47812;SDS011;34221;45.296;9.516;2023-07-20T01:05:23;1.73;;;1.23;;
47812;SDS011;34221;45.296;9.516;2023-07-20T01:06:36;2.08;;;1.20;;
47812;SDS011;34221;45.296;9.516;2023-07-20T01:07:36;1.30;;;1.00;;
47812;SDS011;34221;45.296;9.516;2023-07-20T01:08:03;1.85;;;1.10;;
47812;SDS011;34221;45.296;9.516;2023-07-20T01:08:39;1.50;;;1.10;;
47812;SDS011;34221;45.296;9.516;2023-07-20T01:09:13;1.30;;;0.95;;
47812;SDS011;34221;45.296;9.516;2023-07-20T01:09:35;1.15;;;0.80;;
47812;SDS011;34221;45.296;9.516;2023-07-20T01:10:46;0.90;;;0.70;;
47812;SDS011;34221;45.296;9.516;2023-07-20T01:11:36;1.13;;;0.90;;
47812;SDS011;34221;45.296;9.516;2023-07-20T01:12:31;2.40;;;1.40;;
47812;SDS011;34221;45.296;9.516;2023-07-20T01:12:56;2.45;;;1.60;;
47812;SDS011;34221;45.296;9.516;2023-07-20T01:13:12;2.40;;;1.40;;
47812;SDS011;34221;45.296;9.516;2023-07-20T01:13:29;2.40;;;1.50;;
47812;SDS011;34221;45.296;9.516;2023-07-20T01:13:45;2.78;;;1.58;;
47812;SDS011;34221;45.296;9.516;2023-07-20T01:14:00;2.45;;;1.40;;
47812;SDS011;34221;45.296;9.516;2023-07-20T01:14:17;2.05;;;1.40;;
47812;SDS011;34221;45.296;9.516;2023-07-20T01:14:32;2.05;;;1.50;;
47812;SDS011;34221;45.296;9.516;2023-07-20T01:14:49;2.08;;;1.48;;
47812;SDS011;34221;45.296;9.516;2023-07-20T01:15:05;1.98;;;1.30;;
47812;SDS011;34221;45.296;9.516;2023-07-20T01:15:22;2.53;;;1.58;;
47812;SDS011;34221;45.296;9.516;2023-07-20T01:15:37;3.58;;;1.70;;
47812;SDS011;34221;45.296;9.516;2023-07-20T01:16:10;3.33;;;1.60;;
47812;SDS011;34221;45.296;9.516;2023-07-20T01:16:26;2.90;;;1.52;;
47812;SDS011;34221;45.296;9.516;2023-07-20T01:16:42;2.50;;;1.80;;
47812;SDS011;34221;45.296;9.516;2023-07-20T01:16:57;3.45;;;2.08;;
47812;SDS011;34221;45.296;9.516;2023-07-20T01:17:12;3.45;;;2.08;;
47812;SDS011;34221;45.296;9.516;2023-07-20T01:17:28;2.92;;;2.03;;
47812;SDS011;34221;45.296;9.516;2023-07-20T01:17:43;3.50;;;1.98;;
47812;SDS011;34221;45.296;9.516;2023-07-20T01:17:58;3.58;;;1.90;;
47812;SDS011;34221;45.296;9.516;2023-07-20T01:18:15;3.30;;;2.03;;
47812;SDS011;34221;45.296;9.516;2023-07-20T01:18:30;3.72;;;2.10;;
47812;SDS011;34221;45.296;9.516;2023-07-20T01:18:45;3.65;;;2.05;;
47812;SDS011;34221;45.296;9.516;2023-07-20T01:19:00;2.83;;;1.70;;
47812;SDS011;34221;45.296;9.516;2023-07-20T01:19:15;2.67;;;1.60;;
47812;SDS011;34221;45.296;9.516;2023-07-20T01:19:30;2.55;;;1.65;;
47812;SDS011;34221;45.296;9.516;2023-07-20T01:19:46;2.72;;;1.63;;
47812;SDS011;34221;45.296;9.516;2023-07-20T01:20:01;2.50;;;1.42;;
47812;SDS011;34221;45.296;9.516;2023-07-20T01:20:18;2.08;;;1.20;;
47812;SDS011;34221;45.296;9.516;2023-07-20T01:20:36;1.80;;;1.15;;
47812;SDS011;34221;45.296;9.516;2023-07-20T01:20:52;1.70;;;1.20;;
47812;SDS011;34221;45.296;9.516;2023-07-20T01:21:18;2.15;;;1.48;;
47812;SDS011;34221;45.296;9.516;2023-07-20T01:21:44;1.60;;;1.23;;
47812;SDS011;34221;45.296;9.516;2023-07-20T01:23:22;2.10;;;1.20;;
47812;SDS011;34221;45.296;9.516;2023-07-20T01:28:37;1.53;;;1.13;;
47812;SDS011;34221;45.296;9.516;2023-07-20T01:30:35;1.33;;;0.95;;
47812;SDS011;34221;45.296;9.516;2023-07-20T01:31:24;1.40;;;0.90;;
47812;SDS011;34221;45.296;9.516;2023-07-20T01:31:42;1.52;;;0.90;;
47812;SDS011;34221;45.296;9.516;2023-07-20T01:31:59;1.23;;;0.95;;
47812;SDS011;34221;45.296;9.516;2023-07-20T01:32:19;1.08;;;0.88;;
47812;SDS011;34221;45.296;9.516;2023-07-20T01:32:40;1.50;;;0.82;;
47812;SDS011;34221;45.296;9.516;2023-07-20T01:32:57;1.67;;;0.93;;
47812;SDS011;34221;45.296;9.516;2023-07-20T01:33:13;1.13;;;0.88;;
47812;SDS011;34221;45.296;9.516;2023-07-20T01:33:30;1.08;;;0.77;;
47812;SDS011;34221;45.296;9.516;2023-07-20T01:33:47;1.30;;;0.90;;
47812;SDS011;34221;45.296;9.516;2023-07-20T01:34:05;1.30;;;0.80;;
47812;SDS011;34221;45.296;9.516;2023-07-20T01:34:23;1.58;;;0.90;;
47812;SDS011;34221;45.296;9.516;2023-07-20T01:34:40;0.98;;;0.80;;
47812;SDS011;34221;45.296;9.516;2023-07-20T01:34:55;0.60;;;0.60;;
47812;SDS011;34221;45.296;9.516;2023-07-20T01:35:14;1.23;;;0.80;;
47812;SDS011;34221;45.296;9.516;2023-07-20T01:35:32;1.13;;;0.63;;
47812;SDS011;34221;45.296;9.516;2023-07-20T01:35:50;1.08;;;0.73;;
47812;SDS011;34221;45.296;9.516;2023-07-20T01:36:11;1.40;;;0.90;;
47812;SDS011;34221;45.296;9.516;2023-07-20T01:36:28;0.88;;;0.70;;
47812;SDS011;34221;45.296;9.516;2023-07-20T01:36:48;1.30;;;0.80;;
47812;SDS011;34221;45.296;9.516;2023-07-20T01:37:05;1.38;;;0.80;;
47812;SDS011;34221;45.296;9.516;2023-07-20T01:37:21;1.02;;;0.65;;
47812;SDS011;34221;45.296;9.516;2023-07-20T01:37:40;0.60;;;0.50;;
47812;SDS011;34221;45.296;9.516;2023-07-20T01:37:58;0.80;;;0.60;;
47812;SDS011;34221;45.296;9.516;2023-07-20T01:38:13;0.88;;;0.65;;
47812;SDS011;34221;45.296;9.516;2023-07-20T01:38:29;0.60;;;0.60;;
47812;SDS011;34221;45.296;9.516;2023-07-20T01:38:45;0.68;;;0.60;;
47812;SDS011;34221;45.296;9.516;2023-07-20T01:39:01;0.77;;;0.65;;
47812;SDS011;34221;45.296;9.516;2023-07-20T01:39:16;0.82;;;0.68;;
47812;SDS011;34221;45.296;9.516;2023-07-20T01:39:32;0.70;;;0.52;;
47812;SDS011;34221;45.296;9.516;2023-07-20T01:39:48;0.70;;;0.60;;
47812;SDS011;34221;45.296;9.516;2023-07-20T01:40:04;1.00;;;0.80;;
47812;SDS011;34221;45.296;9.516;2023-07-20T01:40:20;0.97;;;0.70;;
47812;SDS011;34221;45.296;9.516;2023-07-20T01:40:36;0.75;;;0.60;;
47812;SDS011;34221;45.296;9.516;2023-07-20T01:40:52;0.68;;;0.68;;
47812;SDS011;34221;45.296;9.516;2023-07-20T01:41:08;0.75;;;0.70;;
47812;SDS011;34221;45.296;9.516;2023-07-20T01:41:25;0.93;;;0.70;;
47812;SDS011;34221;45.296;9.516;2023-07-20T01:41:40;0.88;;;0.60;;
47812;SDS011;34221;45.296;9.516;2023-07-20T01:41:55;0.98;;;0.63;;
47812;SDS011;34221;45.296;9.516;2023-07-20T01:42:11;1.00;;;0.75;;
47812;SDS011;34221;45.296;9.516;2023-07-20T01:42:26;0.88;;;0.80;;
47812;SDS011;34221;45.296;9.516;2023-07-20T01:42:45;1.08;;;0.80;;
47812;SDS011;34221;45.296;9.516;2023-07-20T01:43:02;0.98;;;0.80;;
47812;SDS011;34221;45.296;9.516;2023-07-20T01:43:17;0.82;;;0.73;;
47812;SDS011;34221;45.296;9.516;2023-07-20T01:43:32;0.80;;;0.70;;
47812;SDS011;34221;45.296;9.516;2023-07-20T01:43:48;0.88;;;0.70;;
47812;SDS011;34221;45.296;9.516;2023-07-20T01:44:04;0.80;;;0.73;;
47812;SDS011;34221;45.296;9.516;2023-07-20T01:44:19;1.10;;;1.00;;
47812;SDS011;34221;45.296;9.516;2023-07-20T01:44:34;1.13;;;0.90;;
47812;SDS011;34221;45.296;9.516;2023-07-20T01:44:51;0.90;;;0.70;;
47812;SDS011;34221;45.296;9.516;2023-07-20T01:45:07;0.73;;;0.70;;
47812;SDS011;34221;45.296;9.516;2023-07-20T01:45:23;0.55;;;0.55;;
47812;SDS011;34221;45.296;9.516;2023-07-20T01:45:38;0.88;;;0.70;;
47812;SDS011;34221;45.296;9.516;2023-07-20T01:45:53;0.95;;;0.73;;
47812;SDS011;34221;45.296;9.516;2023-07-20T01:46:27;0.80;;;0.68;;
47812;SDS011;34221;45.296;9.516;2023-07-20T01:46:42;1.42;;;0.90;;
47812;SDS011;34221;45.296;9.516;2023-07-20T01:46:58;1.20;;;0.80;;
47812;SDS011;34221;45.296;9.516;2023-07-20T01:47:13;0.93;;;0.65;;
47812;SDS011;34221;45.296;9.516;2023-07-20T01:47:28;1.17;;;0.60;;
47812;SDS011;34221;45.296;9.516;2023-07-20T01:47:43;1.05;;;0.60;;
47812;SDS011;34221;45.296;9.516;2023-07-20T01:47:58;0.75;;;0.68;;
47812;SDS011;34221;45.296;9.516;2023-07-20T01:48:13;0.70;;;0.60;;
47812;SDS011;34221;45.296;9.516;2023-07-20T01:48:30;1.00;;;0.70;;
47812;SDS011;34221;45.296;9.516;2023-07-20T01:48:45;0.97;;;0.63;;
47812;SDS011;34221;45.296;9.516;2023-07-20T01:49:00;1.70;;;0.70;;
47812;SDS011;34221;45.296;9.516;2023-07-20T01:49:14;1.70;;;0.70;;
47812;SDS011;34221;45.296;9.516;2023-07-20T01:49:29;0.93;;;0.70;;
47812;SDS011;34221;45.296;9.516;2023-07-20T01:49:45;1.00;;;0.75;;
47812;SDS011;34221;45.296;9.516;2023-07-20T01:50:00;0.85;;;0.70;;
47812;SDS011;34221;45.296;9.516;2023-07-20T01:50:15;0.93;;;0.70;;
47812;SDS011;34221;45.296;9.516;2023-07-20T01:50:30;1.02;;;0.80;;